createdAt,value
2022-12-24T00:02:08.219Z,8.64
2022-12-24T00:07:09.895Z,8.71
2022-12-24T00:12:11.633Z,8.73
2022-12-24T00:17:13.133Z,8.77
2022-12-24T00:22:14.622Z,8.78
2022-12-24T00:27:16.321Z,8.72
2022-12-24T00:32:17.739Z,8.74
2022-12-24T00:37:19.392Z,8.74
2022-12-24T00:42:20.945Z,8.63
2022-12-24T00:47:22.360Z,8.68
2022-12-24T00:52:23.831Z,8.69
2022-12-24T00:57:25.343Z,8.58
2022-12-24T01:02:26.951Z,8.59
2022-12-24T01:07:28.573Z,8.53
2022-12-24T01:12:30.045Z,8.46
2022-12-24T01:17:33.111Z,8.55
2022-12-24T01:22:35.064Z,8.44
2022-12-24T01:27:36.572Z,8.50
2022-12-24T01:32:38.015Z,8.49
2022-12-24T01:37:39.681Z,8.59
2022-12-24T01:43:03.741Z,8.52
2022-12-24T01:48:09.502Z,8.59
2022-12-24T01:53:13.732Z,8.60
2022-12-24T01:58:17.718Z,8.59
2022-12-24T02:03:19.938Z,8.48
2022-12-24T02:08:22.146Z,8.38
2022-12-24T02:13:23.594Z,8.31
2022-12-24T02:18:46.329Z,8.30
2022-12-24T02:24:21.778Z,8.19
2022-12-24T02:29:51.938Z,8.20
2022-12-24T02:35:10.089Z,8.30
2022-12-24T02:40:26.976Z,8.29
2022-12-24T02:45:32.064Z,8.21
2022-12-24T02:50:33.509Z,8.24
2022-12-24T02:56:04.052Z,8.27
2022-12-24T03:01:22.022Z,8.37
2022-12-24T03:06:38.779Z,8.38
2022-12-24T03:11:48.998Z,8.35
2022-12-24T03:16:50.591Z,8.36
2022-12-24T03:21:54.456Z,8.36
2022-12-24T03:26:56.674Z,8.21
2022-12-24T03:32:04.022Z,8.24
2022-12-24T03:37:05.559Z,8.34
2022-12-24T03:42:06.988Z,8.28
2022-12-24T03:47:08.430Z,8.36
2022-12-24T03:52:09.875Z,8.49
2022-12-24T03:57:11.341Z,8.57
2022-12-24T04:02:12.941Z,8.72
2022-12-24T04:07:14.586Z,8.93
2022-12-24T04:12:16.113Z,9.03
2022-12-24T04:17:17.955Z,9.13
2022-12-24T04:22:19.460Z,9.19
2022-12-24T04:27:25.205Z,9.39
2022-12-24T04:32:29.793Z,9.49
2022-12-24T04:37:31.248Z,9.49
2022-12-24T04:42:32.664Z,9.59
2022-12-24T04:47:34.115Z,9.57
2022-12-24T04:52:35.637Z,9.58
2022-12-24T04:57:37.929Z,9.64
2022-12-24T05:02:39.612Z,9.63
2022-12-24T05:07:41.181Z,9.66
2022-12-24T05:12:42.605Z,9.72
2022-12-24T05:17:44.112Z,9.95
2022-12-24T05:23:03.910Z,9.77
2022-12-24T05:28:05.687Z,9.78
2022-12-24T05:33:07.110Z,9.76
2022-12-24T05:38:08.840Z,9.85
2022-12-24T05:43:10.303Z,9.93
2022-12-24T05:48:11.816Z,9.89
2022-12-24T05:53:13.235Z,9.87
2022-12-24T05:58:15.238Z,10.00
2022-12-24T06:03:16.667Z,10.17
2022-12-24T06:08:18.354Z,10.06
2022-12-24T06:13:19.765Z,10.06
2022-12-24T06:18:21.362Z,10.04
2022-12-24T06:23:24.000Z,10.05
2022-12-24T06:28:25.435Z,10.20
2022-12-24T06:33:27.320Z,10.17
2022-12-24T06:38:31.577Z,10.20
2022-12-24T06:43:36.150Z,10.17
2022-12-24T06:48:37.622Z,10.27
2022-12-24T06:53:39.200Z,10.09
2022-12-24T06:58:41.547Z,10.21
2022-12-24T07:03:43.029Z,10.08
2022-12-24T07:08:44.508Z,10.11
2022-12-24T07:13:47.101Z,10.16
2022-12-24T07:18:48.543Z,10.14
2022-12-24T07:23:49.959Z,10.07
2022-12-24T07:28:51.377Z,10.14
2022-12-24T07:33:52.801Z,10.20
2022-12-24T07:38:54.732Z,10.03
2022-12-24T07:43:56.225Z,10.10
2022-12-24T07:48:57.681Z,10.08
2022-12-24T07:53:59.529Z,10.05
2022-12-24T07:59:00.980Z,10.11
2022-12-24T08:04:02.538Z,10.10
2022-12-24T08:09:04.363Z,10.08
2022-12-24T08:14:05.802Z,10.08
2022-12-24T08:19:07.204Z,9.85
2022-12-24T08:24:08.726Z,9.93
2022-12-24T08:29:10.158Z,9.88
2022-12-24T08:34:11.708Z,9.97
2022-12-24T08:39:13.481Z,9.84
2022-12-24T08:44:14.922Z,9.55
2022-12-24T08:49:16.446Z,9.82
2022-12-24T08:54:17.971Z,9.62
2022-12-24T08:59:19.382Z,9.76
2022-12-24T09:04:20.863Z,9.82
2022-12-24T09:09:22.349Z,9.55
2022-12-24T09:14:23.796Z,9.38
2022-12-24T09:19:25.431Z,9.75
2022-12-24T09:24:26.858Z,9.77
2022-12-24T09:29:28.631Z,9.74
2022-12-24T09:34:30.918Z,10.03
2022-12-24T09:39:32.924Z,9.91
2022-12-24T09:44:59.009Z,10.04
2022-12-24T09:50:04.092Z,9.94
2022-12-24T09:55:19.821Z,9.62
2022-12-24T10:00:29.265Z,9.79
2022-12-24T10:05:45.351Z,9.68
2022-12-24T10:10:52.950Z,9.93
2022-12-24T10:16:08.453Z,9.65
2022-12-24T10:21:15.861Z,9.96
2022-12-24T10:26:46.236Z,9.90
2022-12-24T10:31:58.516Z,9.84
2022-12-24T10:37:02.899Z,9.68
2022-12-24T10:42:07.140Z,9.66
2022-12-24T10:47:10.610Z,9.61
2022-12-24T10:52:15.453Z,9.81
2022-12-24T10:57:26.268Z,9.80
2022-12-24T11:02:34.544Z,9.73
2022-12-24T11:07:36.123Z,9.71
2022-12-24T11:12:40.919Z,9.61
2022-12-24T11:17:42.445Z,9.87
2022-12-24T11:22:49.730Z,9.50
2022-12-24T11:27:51.833Z,9.62
2022-12-24T11:33:18.151Z,9.52
2022-12-24T11:38:23.087Z,9.61
2022-12-24T11:43:24.670Z,9.65
2022-12-24T11:48:34.519Z,9.74
2022-12-24T11:54:00.818Z,9.61
2022-12-24T11:59:26.179Z,9.83
2022-12-24T12:04:30.699Z,9.87
2022-12-24T12:09:40.635Z,9.86
2022-12-24T12:14:50.415Z,9.91
2022-12-24T12:20:00.694Z,9.78
2022-12-24T12:25:05.206Z,9.86
2022-12-24T12:30:15.531Z,9.81
2022-12-24T12:35:35.963Z,10.05
2022-12-24T12:40:55.995Z,10.09
2022-12-24T12:46:25.596Z,10.03
2022-12-24T12:51:54.296Z,10.14
2022-12-24T12:57:01.738Z,10.08
2022-12-24T13:02:17.692Z,10.09
2022-12-24T13:07:37.490Z,10.17
2022-12-24T13:13:08.359Z,10.27
2022-12-24T13:18:34.384Z,10.24
2022-12-24T13:23:35.917Z,10.17
2022-12-24T13:28:37.460Z,10.01
2022-12-24T13:33:38.943Z,10.09
2022-12-24T13:38:50.825Z,10.18
2022-12-24T13:44:07.988Z,10.01
2022-12-24T13:49:20.037Z,9.94
2022-12-24T13:54:25.694Z,10.13
2022-12-24T13:59:38.971Z,10.13
2022-12-24T14:04:42.273Z,10.23
2022-12-24T14:09:49.950Z,10.33
2022-12-24T14:14:51.399Z,10.17
2022-12-24T14:19:56.456Z,10.22
2022-12-24T14:25:01.577Z,10.16
2022-12-24T14:30:16.087Z,10.22
2022-12-24T14:35:19.164Z,10.03
2022-12-24T14:40:26.312Z,9.89
2022-12-24T14:45:44.499Z,9.94
2022-12-24T14:51:09.989Z,9.81
2022-12-24T14:56:16.908Z,9.82
2022-12-24T15:01:23.331Z,9.71
2022-12-24T15:06:24.950Z,9.78
2022-12-24T15:11:26.617Z,9.59
2022-12-24T15:16:37.052Z,9.34
2022-12-24T15:21:42.179Z,9.40
2022-12-24T15:26:44.817Z,9.37
2022-12-24T15:31:46.266Z,9.30
2022-12-24T15:36:47.977Z,9.28
2022-12-24T15:42:08.914Z,9.29
2022-12-24T15:47:17.437Z,9.35
2022-12-24T15:52:24.611Z,9.44
2022-12-24T15:57:33.583Z,9.44
2022-12-24T16:02:39.101Z,9.49
2022-12-24T16:08:07.128Z,9.54
2022-12-24T16:13:22.373Z,9.56
2022-12-24T16:18:31.886Z,9.44
2022-12-24T16:23:45.529Z,9.51
2022-12-24T16:28:47.502Z,9.55
2022-12-24T16:34:01.314Z,9.56
2022-12-24T16:39:21.277Z,9.50
2022-12-24T16:44:22.821Z,9.56
2022-12-24T16:49:24.304Z,9.70
2022-12-24T16:54:25.849Z,9.64
2022-12-24T16:59:27.385Z,9.51
2022-12-24T17:04:31.569Z,9.57
2022-12-24T17:09:33.100Z,9.43
2022-12-24T17:14:35.438Z,9.44
2022-12-24T17:19:36.878Z,9.48
2022-12-24T17:24:38.341Z,9.49
2022-12-24T17:29:40.073Z,9.41
2022-12-24T17:34:41.557Z,9.41
2022-12-24T17:39:43.063Z,9.39
2022-12-24T17:44:44.901Z,9.34
2022-12-24T17:49:46.316Z,9.35
2022-12-24T17:54:47.773Z,9.38
2022-12-24T17:59:49.344Z,9.37
2022-12-24T18:04:50.773Z,9.45
2022-12-24T18:09:52.473Z,9.45
2022-12-24T18:14:53.958Z,9.50
2022-12-24T18:19:55.745Z,9.56
2022-12-24T18:24:57.159Z,9.57
2022-12-24T18:29:58.595Z,9.49
2022-12-24T18:35:00.018Z,9.45
2022-12-24T18:40:02.252Z,9.37
2022-12-24T18:45:04.630Z,9.43
2022-12-24T18:50:07.112Z,9.54
2022-12-24T18:55:09.161Z,9.59
2022-12-24T19:00:11.288Z,9.51
2022-12-24T19:05:15.162Z,9.47
2022-12-24T19:10:16.698Z,9.52
2022-12-24T19:15:18.192Z,9.52
2022-12-24T19:20:19.605Z,9.45
2022-12-24T19:25:21.101Z,9.44
2022-12-24T19:30:22.559Z,9.45
2022-12-24T19:35:23.968Z,9.50
2022-12-24T19:40:26.061Z,9.48
2022-12-24T19:45:27.566Z,9.44
2022-12-24T19:50:29.950Z,9.44
2022-12-24T19:55:31.379Z,9.37
2022-12-24T20:00:32.869Z,9.24
2022-12-24T20:05:34.370Z,9.14
2022-12-24T20:10:40.418Z,8.97
2022-12-24T20:15:43.674Z,8.84
2022-12-24T20:20:45.110Z,8.70
2022-12-24T20:25:46.563Z,8.60
2022-12-24T20:30:47.992Z,8.51
2022-12-24T20:35:49.446Z,8.42
2022-12-24T20:40:56.269Z,8.41
2022-12-24T20:45:58.850Z,8.40
2022-12-24T20:51:00.433Z,8.39
2022-12-24T20:56:02.578Z,8.42
2022-12-24T21:01:24.245Z,8.32
2022-12-24T21:06:26.159Z,8.40
2022-12-24T21:11:46.035Z,8.42
2022-12-24T21:16:48.343Z,8.56
2022-12-24T21:21:50.411Z,8.67
2022-12-24T21:26:51.838Z,8.55
2022-12-24T21:31:53.306Z,8.50
2022-12-24T21:36:54.889Z,8.51
2022-12-24T21:41:56.951Z,8.45
2022-12-24T21:46:58.355Z,8.43
2022-12-24T21:51:59.983Z,8.42
2022-12-24T21:57:23.077Z,8.47
2022-12-24T22:02:28.304Z,8.55
2022-12-24T22:07:49.136Z,8.59
2022-12-24T22:12:50.562Z,8.62
2022-12-24T22:17:52.058Z,8.63
2022-12-24T22:22:53.607Z,8.62
2022-12-24T22:27:55.036Z,8.62
2022-12-24T22:32:57.555Z,8.55
2022-12-24T22:38:00.464Z,8.45
2022-12-24T22:43:02.188Z,8.41
2022-12-24T22:48:03.784Z,8.37
2022-12-24T22:53:05.189Z,8.42
2022-12-24T22:58:06.667Z,8.48
2022-12-24T23:03:08.873Z,8.49
2022-12-24T23:08:12.805Z,8.37
2022-12-24T23:13:32.733Z,8.26
2022-12-24T23:18:34.401Z,8.19
2022-12-24T23:23:37.404Z,8.15
2022-12-24T23:28:39.859Z,8.12
2022-12-24T23:33:41.664Z,8.11
2022-12-24T23:38:43.338Z,8.08
2022-12-24T23:43:45.769Z,8.06
2022-12-24T23:48:47.996Z,8.12
2022-12-24T23:53:50.459Z,8.20
2022-12-24T23:58:52.248Z,8.13
